Map

Track Data

SID SEASON NUMBER BASIN SUBBASIN NAME ISO_TIME NATURE LAT LON WMO_WIND WMO_PRES WMO_AGENCY TRACK_TYPE DIST2LAND LANDFALL IFLAG USA_AGENCY USA_ATCF_ID USA_LAT USA_LON USA_RECORD USA_STATUS USA_WIND USA_PRES USA_SSHS USA_R34_NE USA_R34_SE USA_R34_SW USA_R34_NW USA_R50_NE USA_R50_SE USA_R50_SW USA_R50_NW USA_R64_NE USA_R64_SE USA_R64_SW USA_R64_NW USA_POCI USA_ROCI USA_RMW USA_EYE TOKYO_LAT TOKYO_LON TOKYO_GRADE TOKYO_WIND TOKYO_PRES TOKYO_R50_DIR TOKYO_R50_LONG TOKYO_R50_SHORT TOKYO_R30_DIR TOKYO_R30_LONG TOKYO_R30_SHORT TOKYO_LAND CMA_LAT CMA_LON CMA_CAT CMA_WIND CMA_PRES HKO_LAT HKO_LON HKO_CAT HKO_WIND HKO_PRES NEWDELHI_LAT NEWDELHI_LON NEWDELHI_GRADE NEWDELHI_WIND NEWDELHI_PRES NEWDELHI_CI NEWDELHI_DP NEWDELHI_POCI REUNION_LAT REUNION_LON REUNION_TYPE REUNION_WIND REUNION_PRES REUNION_TNUM REUNION_CI REUNION_RMW REUNION_R34_NE REUNION_R34_SE REUNION_R34_SW REUNION_R34_NW REUNION_R50_NE REUNION_R50_SE REUNION_R50_SW REUNION_R50_NW REUNION_R64_NE REUNION_R64_SE REUNION_R64_SW REUNION_R64_NW BOM_LAT BOM_LON BOM_TYPE BOM_WIND BOM_PRES BOM_TNUM BOM_CI BOM_RMW BOM_R34_NE BOM_R34_SE BOM_R34_SW BOM_R34_NW BOM_R50_NE BOM_R50_SE BOM_R50_SW BOM_R50_NW BOM_R64_NE BOM_R64_SE BOM_R64_SW BOM_R64_NW BOM_ROCI BOM_POCI BOM_EYE BOM_POS_METHOD BOM_PRES_METHOD NADI_LAT NADI_LON NADI_CAT NADI_WIND NADI_PRES WELLINGTON_LAT WELLINGTON_LON WELLINGTON_WIND WELLINGTON_PRES DS824_LAT DS824_LON DS824_STAGE DS824_WIND DS824_PRES TD9636_LAT TD9636_LON TD9636_STAGE TD9636_WIND TD9636_PRES TD9635_LAT TD9635_LON TD9635_WIND TD9635_PRES TD9635_ROCI NEUMANN_LAT NEUMANN_LON NEUMANN_CLASS NEUMANN_WIND NEUMANN_PRES MLC_LAT MLC_LON MLC_CLASS MLC_WIND MLC_PRES USA_GUST BOM_GUST BOM_GUST_PER REUNION_GUST REUNION_GUST_PER USA_SEAHGT USA_SEARAD_NE USA_SEARAD_SE USA_SEARAD_SW USA_SEARAD_NW STORM_SPEED STORM_DIR
1952352N07147 1952 103 WP MM GLORIA 1952-12-16 12:00:00 TS 6.50000 147.000 main 963 963 O________OOO__ jtwc_wp WP271952 6.50000 147.000 35 0 6.50000 147.000 TC 35 6.50000 147.000 2 35 6.50000 147.000 35 1001 60 12 291
1952352N07147 1952 103 WP MM GLORIA 1952-12-16 15:00:00 TS 6.70659 146.454 main 986 986 P________PPP__ WP271952 6.73261 146.453 35 0 6.73261 146.453 TC 35 6.62854 146.456 2 36 6.73261 146.453 35 1000 60 12 288
1952352N07147 1952 103 WP MM GLORIA 1952-12-16 18:00:00 TS 6.86386 145.903 main 1011 1011 O________OPO__ jtwc_wp WP271952 6.90000 145.900 35 0 6.90000 145.900 TC 35 6.75545 145.910 2 37 6.90000 145.900 35 999 60 11 282
1952352N07147 1952 103 WP MM GLORIA 1952-12-16 21:00:00 TS 6.94363 145.347 main 1018 1018 P________PPP__ WP271952 6.96496 145.342 37 0 6.96496 145.342 TC 37 6.87963 145.359 2 38 6.96496 145.342 37 998 90 11 277
1952352N07147 1952 103 WP MM GLORIA 1952-12-17 00:00:00 TS 7.00000 144.800 main 1039 1039 O________OOO__ jtwc_wp WP271952 7.00000 144.800 40 0 7.00000 144.800 TC 40 7.00000 144.800 2 40 7.00000 144.800 40 998 120 11 278
1952352N07147 1952 103 WP MM GLORIA 1952-12-17 03:00:00 TS 7.09281 144.294 main 1062 1062 P________PPP__ WP271952 7.08484 144.315 40 0 7.08484 144.315 TC 40 7.11671 144.232 2 41 7.08484 144.315 40 997 120 11 281
1952352N07147 1952 103 WP MM GLORIA 1952-12-17 06:00:00 TS 7.20869 143.764 main 1087 1087 O________OPO__ jtwc_wp WP271952 7.20000 143.800 40 0 7.20000 143.800 TC 40 7.23477 143.657 2 42 7.20000 143.800 40 997 120 12 283
1952352N07147 1952 103 WP MM GLORIA 1952-12-17 09:00:00 TS 7.35268 143.132 main 1133 1122 P________PPP__ WP271952 7.35009 143.150 42 0 7.35009 143.150 TC 42 7.36044 143.079 2 43 7.35009 143.150 42 996 150 13 283
1952352N07147 1952 103 WP MM GLORIA 1952-12-17 12:00:00 TS 7.50000 142.500 main 1124 1113 O________OOO__ jtwc_wp WP271952 7.50000 142.500 45 0 7.50000 142.500 TC 45 7.50000 142.500 2 45 7.50000 142.500 45 995 180 12 283
1952352N07147 1952 103 WP MM GLORIA 1952-12-17 15:00:00 TS 7.60976 141.982 main 1113 1104 P________PPP__ WP271952 7.58477 142.000 45 0 7.58477 142.000 TC 45 7.68473 141.929 2 45 7.58477 142.000 45 994 210 11 283
1952352N07147 1952 103 WP MM GLORIA 1952-12-17 18:00:00 TS 7.74491 141.464 main 1104 1104 O________OPO__ jtwc_wp WP271952 7.70000 141.500 45 0 7.70000 141.500 TC 45 7.87962 141.358 2 45 7.70000 141.500 45 994 240 12 288
1952352N07147 1952 103 WP MM GLORIA 1952-12-17 21:00:00 TS 7.97742 140.850 main 1116 1108 P________PPP__ WP271952 7.95000 140.873 45 0 7.95000 140.873 TC 45 8.05971 140.782 2 45 7.95000 140.873 45 993 270 12 288
1952352N07147 1952 103 WP MM GLORIA 1952-12-18 00:00:00 TS 8.12778 140.289 996 tokyo main 1110 1093 OOO______OOO__ jtwc_wp WP271952 8.20000 140.200 45 0 7.60000 141.000 9 996 0 0 0 7.50000 141.000 3 48 996 8.20000 140.200 TC 45 8.20000 140.200 2 45 8.20000 140.200 45 993 300 12 282
1952352N07147 1952 103 WP MM GLORIA 1952-12-18 03:00:00 TS 8.22237 139.652 main 1093 1076 PPP______PPP__ WP271952 8.34496 139.535 47 0 7.85542 140.035 9 996 0 0 7.82792 140.035 3 48 996 8.34496 139.535 TC 47 8.23528 139.619 2 46 8.34496 139.535 47 993 300 13 277
1952352N07147 1952 103 WP MM GLORIA 1952-12-18 06:00:00 TS 8.28809 138.978 996 tokyo main 1076 1055 OOO______OPO__ jtwc_wp WP271952 8.40000 138.900 50 0 8.10000 139.100 9 996 0 0 0 8.10000 139.100 3 48 996 8.40000 138.900 TC 50 8.23450 139.029 2 47 8.40000 138.900 50 993 300 13 274
1952352N07147 1952 103 WP MM GLORIA 1952-12-18 09:00:00 TS 8.31923 138.334 main 1052 1035 PPP______PPP__ WP271952 8.35718 138.372 50 0 8.32243 138.233 9 996 0 0 8.27993 138.232 3 53 996 8.35718 138.372 TC 50 8.24148 138.425 2 48 8.35718 138.372 50 992 270 13 273
1952352N07147 1952 103 WP MM GLORIA 1952-12-18 12:00:00 TS 8.35000 137.700 996 tokyo main 1045 1031 OOO______OOO__ jtwc_wp WP271952 8.30000 137.800 50 0 8.50000 137.500 9 996 0 0 0 8.40000 137.500 3 58 996 8.30000 137.800 TC 50 8.30000 137.800 2 50 8.30000 137.800 50 992 240 13 274
1952352N07147 1952 103 WP MM GLORIA 1952-12-18 15:00:00 TS 8.40366 137.009 main 1031 1026 PPP______PPP__ WP271952 8.28275 137.000 50 0 8.61472 136.955 9 993 0 0 8.49973 136.955 3 58 993 8.28275 137.000 TC 50 8.45926 137.143 2 52 8.28275 137.000 50 992 210 14 278
1952352N07147 1952 103 WP MM GLORIA 1952-12-18 18:00:00 TS 8.52914 136.344 990 tokyo main 1033 1019 OOO______OPO__ jtwc_wp WP271952 8.40000 136.200 50 0 8.70000 136.500 9 990 0 0 0 8.60000 136.500 3 58 990 8.40000 136.200 TC 50 8.67485 136.465 2 55 8.40000 136.200 50 992 180 13 287
1952352N07147 1952 103 WP MM GLORIA 1952-12-18 21:00:00 TS 8.78159 135.771 main 1020 968 PPP______PPP__ WP271952 8.74721 135.620 55 0 8.78499 135.985 9 990 0 0 8.73493 136.000 3 63 990 8.74721 135.620 TC 55 8.92799 135.780 2 57 8.74721 135.620 55 991 150 12 297
1952352N07147 1952 103 WP MM GLORIA 1952-12-19 00:00:00 TS 9.10000 135.233 990 tokyo main 959 911 OOO______OOO__ jtwc_wp WP271952 9.20000 135.100 60 0 8.90000 135.500 9 990 0 0 0 8.90000 135.500 4 68 990 9.20000 135.100 TC 60 9.20000 135.100 2 60 9.20000 135.100 60 991 120 12 301
1952352N07147 1952 103 WP MM GLORIA 1952-12-19 03:00:00 TS 9.42374 134.693 main 911 854 PPP______PPP__ WP271952 9.63735 134.523 65 1 9.07722 135.130 9 990 0 0 9.08487 135.015 4 68 990 9.63735 134.523 TC 65 9.46832 134.443 2 62 9.63735 134.523 65 991 150 13 300
1952352N07147 1952 103 WP MM GLORIA 1952-12-19 06:00:00 TS 9.72490 134.115 990 tokyo main 854 797 OOO______OPO__ jtwc_wp WP271952 10.0000 133.900 70 1 9.30000 134.700 9 990 0 0 0 9.30000 134.500 4 68 990 10.0000 133.900 TC 70 9.74942 133.792 2 65 10.0000 133.900 70 991 180 13 293
1952352N07147 1952 103 WP MM GLORIA 1952-12-19 09:00:00 TS 9.94007 133.465 main 797 728 PPP______PPP__ WP271952 10.1799 133.215 70 1 9.53489 134.075 9 990 0 0 9.53493 133.922 4 68 990 10.1799 133.215 TC 70 10.0308 133.146 2 67 10.1799 133.215 70 990 180 14 287
1952352N07147 1952 103 WP MM GLORIA 1952-12-19 12:00:00 TS 10.1333 132.767 990 tokyo main 728 658 OOO______OOO__ jtwc_wp WP271952 10.3000 132.500 70 1 9.80000 133.300 9 990 0 0 0 9.80000 133.300 4 68 990 10.3000 132.500 TC 70 10.3000 132.500 3 70 10.3000 132.500 70 990 180 15 287
1952352N07147 1952 103 WP MM GLORIA 1952-12-19 15:00:00 TS 10.3562 132.056 main 660 591 PPP______PPP__ WP271952 10.4849 131.785 75 1 10.0549 132.445 9 990 0 0 10.0848 132.672 4 68 989 10.4849 131.785 TC 75 10.5429 131.862 3 72 10.4849 131.785 75 990 180 15 289
1952352N07147 1952 103 WP MM GLORIA 1952-12-19 18:00:00 TS 10.6119 131.337 990 tokyo main 580 528 OOO______OPO__ jtwc_wp WP271952 10.7000 131.100 80 1 10.4000 131.500 9 990 0 0 0 10.4000 132.000 4 68 988 10.7000 131.100 TC 80 10.7717 131.222 3 75 10.7000 131.100 80 991 180 15 292
1952352N07147 1952 103 WP MM GLORIA 1952-12-19 21:00:00 TS 10.9231 130.637 main 518 459 PPP______PPP__ WP271952 10.9422 130.500 80 1 10.9652 130.478 9 990 0 0 10.7574 131.273 4 68 988 10.9422 130.500 TC 80 10.9897 130.571 3 77 10.9422 130.500 80 991 240 15 294
1952352N07147 1952 103 WP MM GLORIA 1952-12-20 00:00:00 TS 11.2333 129.933 990 tokyo main 448 386 OOO______OOO__ jtwc_wp WP271952 11.2000 129.900 80 1 11.5000 129.500 9 990 0 0 0 11.1000 130.500 4 68 988 11.2000 129.900 TC 80 11.2000 129.900 4 80 11.2000 129.900 80 992 300 15 292
1952352N07147 1952 103 WP MM GLORIA 1952-12-20 03:00:00 TS 11.4904 129.216 main 375 304 PPP______PPP__ WP271952 11.4649 129.223 80 1 11.7518 128.734 9 990 0 0 11.3650 129.692 4 68 988 11.4649 129.223 TC 80 11.4312 129.201 4 77 11.4649 129.223 80 993 270 15 288
1952352N07147 1952 103 WP MM GLORIA 1952-12-20 06:00:00 TS 11.7087 128.480 990 tokyo main 304 240 OOO______OPO__ jtwc_wp WP271952 11.7000 128.500 80 1 11.9000 128.000 9 990 0 0 0 11.6000 128.900 4 68 988 11.7000 128.500 TC 80 11.6520 128.480 4 75 11.7000 128.500 80 995 240 15 286
1952352N07147 1952 103 WP MM GLORIA 1952-12-20 09:00:00 TS 11.9123 127.710 main 230 163 PPP______PPP__ WP271952 11.8724 127.757 75 1 12.1305 127.040 9 990 0 0 11.8796 128.200 4 68 988 11.8724 127.757 TC 75 11.8467 127.745 4 72 11.8724 127.757 75 995 210 15 283
1952352N07147 1952 103 WP MM GLORIA 1952-12-20 12:00:00 TS 12.0667 126.950 990 tokyo main 163 87 OOO______OOO__ jtwc_wp WP271952 12.0000 127.000 70 1 12.3000 126.200 9 990 0 0 0 12.1000 127.500 4 68 988 12.0000 127.000 TC 70 12.0000 127.000 4 70 12.0000 127.000 70 996 180 15 280
1952352N07147 1952 103 WP MM GLORIA 1952-12-20 15:00:00 TS 12.1621 126.246 main 76 10 PPP______PPP__ WP271952 12.1223 126.250 65 1 12.3294 125.775 9 990 0 0 12.1801 126.685 4 63 989 12.1223 126.250 TC 65 12.0964 126.269 4 67 12.1223 126.250 65 995 210 14 276
1952352N07147 1952 103 WP MM GLORIA 1952-12-20 18:00:00 TS 12.2086 125.572 990 tokyo main 10 0 OOO______OPO__ jtwc_wp WP271952 12.2000 125.500 60 0 12.3000 125.500 9 990 0 0 0 12.2000 125.900 3 58 990 12.2000 125.500 TC 60 12.1514 125.529 4 65 12.2000 125.500 60 995 240 13 273
1952352N07147 1952 103 WP MM GLORIA 1952-12-20 21:00:00 TS 12.2303 124.910 main 0 0 PPP______PPP__ WP271952 12.2147 124.765 60 0 12.2999 125.130 9 990 0 0 12.2572 125.263 3 58 990 12.2147 124.765 TC 60 12.1807 124.775 4 62 12.2147 124.765 60 994 240 13 271
1952352N07147 1952 103 WP MM GLORIA 1952-12-21 00:00:00 TS 12.2333 124.233 990 tokyo main 21 0 OOO______OOO__ jtwc_wp WP271952 12.2000 124.000 60 0 12.3000 124.700 9 990 0 0 0 12.3000 124.700 3 58 990 12.2000 124.000 TC 60 12.2000 124.000 2 60 12.2000 124.000 60 993 240 14 270
1952352N07147 1952 103 WP MM GLORIA 1952-12-21 03:00:00 TS 12.2349 123.484 main 0 0 PPP______PPP__ WP271952 12.1924 123.157 65 1 12.3001 124.150 9 990 0 0 12.3074 124.127 3 53 990 12.1924 123.157 TC 65 12.2244 123.156 2 65 12.1924 123.157 65 991 210 15 270
1952352N07147 1952 103 WP MM GLORIA 1952-12-21 06:00:00 TS 12.2405 122.733 990 tokyo main 54 46 OOO______OPO__ jtwc_wp WP271952 12.2000 122.300 70 1 12.3000 123.600 9 990 0 0 0 12.3000 123.600 3 48 990 12.2000 122.300 TC 70 12.2431 122.297 2 70 12.2000 122.300 70 990 180 14 271
1952352N07147 1952 103 WP MM GLORIA 1952-12-21 09:00:00 TS 12.2603 122.038 main 54 0 PPP______PPP__ WP271952 12.2424 121.463 75 1 12.2846 123.215 9 990 0 0 12.2847 123.157 3 48 990 12.2424 121.463 TC 75 12.2651 121.465 2 75 12.2424 121.463 75 989 180 13 273
1952352N07147 1952 103 WP MM GLORIA 1952-12-21 12:00:00 TS 12.3000 121.383 990 tokyo main 0 0 OOO______OOO__ jtwc_wp WP271952 12.3000 120.700 80 1 12.3000 122.800 9 990 0 0 0 12.3000 122.700 3 48 990 12.3000 120.700 TC 80 12.3000 120.700 3 80 12.3000 120.700 80 988 180 12 275
1952352N07147 1952 103 WP MM GLORIA 1952-12-21 15:00:00 TS 12.3610 120.768 main 21 21 PPP______PPP__ WP271952 12.3422 120.062 85 2 12.3921 122.240 9 990 0 0 12.3998 122.145 3 48 990 12.3422 120.062 TC 85 12.3474 120.037 3 82 12.3422 120.062 85 986 210 12 276
1952352N07147 1952 103 WP MM GLORIA 1952-12-21 18:00:00 TS 12.4352 120.158 990 tokyo main 73 73 OOO______OPO__ jtwc_wp WP271952 12.4000 119.500 90 2 12.5000 121.500 9 990 0 0 0 12.5000 121.500 3 48 990 12.4000 119.500 TC 90 12.4113 119.445 3 85 12.4000 119.500 90 985 240 13 276
1952352N07147 1952 103 WP MM GLORIA 1952-12-21 21:00:00 TS 12.4950 119.490 main 132 132 PPP______PPP__ WP271952 12.4774 118.927 90 2 12.5509 120.470 9 990 0 0 12.4924 120.780 3 53 990 12.4774 118.927 TC 90 12.4945 118.906 3 87 12.4774 118.927 90 984 210 13 277
1952352N07147 1952 103 WP MM GLORIA 1952-12-22 00:00:00 TS 12.5833 118.850 990 tokyo main 159 159 OOO______OOO__ jtwc_wp WP271952 12.6000 118.400 90 2 12.6000 119.500 9 990 0 0 0 12.5000 120.000 3 58 990 12.6000 118.400 TC 90 12.6000 118.400 4 90 12.6000 118.400 90 983 180 12 282
1952352N07147 1952 103 WP MM GLORIA 1952-12-22 03:00:00 TS 12.7476 118.318 main 204 204 PPP______PPP__ WP271952 12.7998 117.943 95 2 12.6990 119.020 9 990 0 0 12.6425 119.193 3 58 990 12.7998 117.943 TC 95 12.7445 117.868 4 97 12.7998 117.943 95 981 180 11 288
1952352N07147 1952 103 WP MM GLORIA 1952-12-22 06:00:00 TS 12.9179 117.811 990 tokyo main 257 257 OOO______OPO__ jtwc_wp WP271952 13.0000 117.500 100 3 12.8000 118.600 9 990 0 0 0 12.8000 118.400 3 58 990 13.0000 117.500 TC 100 12.9073 117.368 4 105 13.0000 117.500 100 979 180 11 285
1952352N07147 1952 103 WP MM GLORIA 1952-12-22 09:00:00 TS 13.0262 117.214 main 312 312 PPP______PPP__ WP271952 13.1226 116.970 110 3 12.8580 117.807 9 990 0 0 12.8649 117.655 3 63 989 13.1226 116.970 TC 110 13.0665 116.909 4 112 13.1226 116.970 110 974 180 11 279
1952352N07147 1952 103 WP MM GLORIA 1952-12-22 12:00:00 TS 13.1000 116.667 990 tokyo main 362 362 OOO______OOO__ jtwc_wp WP271952 13.2000 116.500 120 4 12.9000 117.000 9 990 0 0 0 12.9000 117.000 4 68 988 13.2000 116.500 TC 120 13.2000 116.500 4 120 13.2000 116.500 120 969 180 9 278
1952352N07147 1952 103 WP MM GLORIA 1952-12-22 15:00:00 TS 13.1535 116.291 main 404 404 PPP______PPP__ WP271952 13.2573 116.227 125 4 12.9196 116.447 9 990 0 0 12.9347 116.470 4 68 988 13.2573 116.227 TC 125 13.2946 116.145 4 122 13.2573 116.227 125 962 180 7 279
1952352N07147 1952 103 WP MM GLORIA 1952-12-22 18:00:00 TS 13.2099 115.973 990 tokyo main 432 432 OOO______OPO__ jtwc_wp WP271952 13.3000 116.000 130 4 13.0000 116.000 9 990 0 0 0 13.0000 116.000 4 68 988 13.3000 116.000 TC 130 13.3595 115.840 4 125 13.3000 116.000 130 955 180 7 283
1952352N07147 1952 103 WP MM GLORIA 1952-12-22 21:00:00 TS 13.3124 115.598 main 475 475 PPP______PPP__ WP271952 13.3651 115.650 130 4 13.2498 115.565 9 990 0 0 13.1349 115.508 4 68 988 13.3651 115.650 TC 130 13.3947 115.564 4 127 13.3651 115.650 130 956 210 8 284
1952352N07147 1952 103 WP MM GLORIA 1952-12-23 00:00:00 TS 13.4000 115.217 990 tokyo main 518 518 OOO______OOO__ jtwc_wp WP271952 13.4000 115.300 130 4 13.5000 115.100 9 990 0 0 0 13.3000 115.000 4 68 988 13.4000 115.300 TC 130 13.4000 115.300 4 130 13.4000 115.300 130 957 240 7 278
1952352N07147 1952 103 WP MM GLORIA 1952-12-23 03:00:00 TS 13.4171 114.863 main 547 544 PPP______PPP__ WP271952 13.3649 115.042 130 4 13.5724 114.537 9 990 0 0 13.4574 114.465 4 68 988 13.3649 115.042 TC 130 13.3783 115.050 4 125 13.3649 115.042 130 959 210 7 270
1952352N07147 1952 103 WP MM GLORIA 1952-12-23 06:00:00 TS 13.4049 114.500 990 tokyo main 544 501 OOO______OPO__ jtwc_wp WP271952 13.3000 114.800 130 4 13.6000 113.900 9 990 0 0 0 13.6000 113.900 4 68 988 13.3000 114.800 TC 130 13.3293 114.802 4 120 13.3000 114.800 130 962 180 7 269
1952352N07147 1952 103 WP MM GLORIA 1952-12-23 09:00:00 TS 13.4026 114.098 main 501 458 PPP______PPP__ WP271952 13.2499 114.523 120 4 13.7002 113.185 9 990 0 0 13.6999 113.307 4 68 989 13.2499 114.523 TC 120 13.2657 114.528 4 115 13.2499 114.523 120 966 180 8 270
1952352N07147 1952 103 WP MM GLORIA 1952-12-23 12:00:00 TS 13.4000 113.667 990 tokyo main 458 415 OOO______OOO__ jtwc_wp WP271952 13.2000 114.200 110 3 13.8000 112.500 9 990 0 0 0 13.8000 112.700 4 68 990 13.2000 114.200 TC 110 13.2000 114.200 4 110 13.2000 114.200 110 971 180 8 270
1952352N07147 1952 103 WP MM GLORIA 1952-12-23 15:00:00 TS 13.3980 113.228 main 404 361 PPP______PPP__ WP271952 13.1499 113.838 105 3 13.8572 111.970 9 990 0 0 13.9348 112.107 4 63 990 13.1499 113.838 TC 105 13.1462 113.778 4 105 13.1499 113.838 105 975 210 9 270
1952352N07147 1952 103 WP MM GLORIA 1952-12-23 18:00:00 TS 13.3988 112.750 990 tokyo main 361 297 OOO______OPO__ jtwc_wp WP271952 13.1000 113.400 100 3 13.9000 111.500 9 990 0 0 0 14.1000 111.500 3 58 990 13.1000 113.400 TC 100 13.0928 113.302 4 100 13.1000 113.400 100 979 240 10 271
1952352N07147 1952 103 WP MM GLORIA 1952-12-23 21:00:00 TS 13.4097 112.196 main 297 244 PPP______PPP__ WP271952 13.0501 112.850 95 2 13.9501 110.970 9 990 0 0 14.3149 110.858 3 53 995 13.0501 112.850 TC 95 13.0430 112.800 4 95 13.0501 112.850 95 982 270 10 268
1952352N07147 1952 103 WP MM GLORIA 1952-12-24 00:00:00 TS 13.3696 111.713 990 tokyo main 244 210 OOO______OOO__ jtwc_wp WP271952 13.0000 112.300 90 2 14.0000 110.500 9 990 0 0 0 14.5000 110.200 3 48 1000 13.0000 112.300 TC 90 13.0000 112.300 4 90 13.0000 112.300 90 986 300 8 262
1952352N07147 1952 103 WP MM GLORIA 1952-12-24 03:00:00 TS 13.2958 111.358 main 210 176 PPP______PPP__ WP271952 12.9422 111.893 82 1 14.0422 110.192 9 990 0 0 14.5828 109.547 3 38 1002 12.9422 111.893 TC 82 12.9663 111.824 4 82 12.9422 111.893 82 989 270 6 253
1952352N07147 1952 103 WP MM GLORIA 1952-12-24 06:00:00 TS 13.1853 111.090 990 tokyo main 176 142 OOO______OPO__ jtwc_wp WP271952 12.9000 111.500 75 1 14.1000 109.900 9 990 0 0 0 14.6000 108.900 1 29 1005 12.9000 111.500 TC 75 12.9402 111.370 4 75 12.9000 111.500 75 992 240 6 246
1952352N07147 1952 103 WP MM GLORIA 1952-12-24 09:00:00 TS 13.0580 110.814 main 142 98 PP_______PPP__ WP271952 12.8925 111.015 67 1 14.1903 109.490 9 990 0 0 1 12.8925 111.015 TC 67 12.9190 110.931 4 67 12.8925 111.015 67 995 210 7 256
1952352N07147 1952 103 WP MM GLORIA 1952-12-24 12:00:00 TS 13.0077 110.385 990 tokyo main 98 65 OO_______OOO__ jtwc_wp WP271952 12.9000 110.500 60 0 14.3000 109.000 9 990 0 0 0 12.9000 110.500 TC 60 12.9000 110.500 2 60 12.9000 110.500 60 998 180 8 255
1952352N07147 1952 103 WP MM GLORIA 1952-12-24 15:00:00 TS 12.8463 110.029 main 55 0 P________P_P__ WP271952 12.8322 110.037 55 0 9 0 0 12.8322 110.037 TC 55 2 12.9026 109.995 55 999 150 9 263
1952352N07147 1952 103 WP MM GLORIA 1952-12-24 18:00:00 TS 12.9000 109.500 main 0 0 O________O_O__ jtwc_wp WP271952 12.9000 109.500 50 0 12.9000 109.500 TC 50 2 12.9000 109.500 50 1001 120 13 293
1952352N07147 1952 103 WP MM GLORIA 1952-12-24 21:00:00 TS 13.3347 108.826 main 0 0 P________P____ WP271952 13.3347 108.826 45 0 13.3347 108.826 TC 45 2 17 302
1952352N07147 1952 103 WP MM GLORIA 1952-12-25 00:00:00 TS 13.8000 108.000 main 0 0 O________O____ jtwc_wp WP271952 13.8000 108.000 40 0 13.8000 108.000 TC 40 19 288
1952352N07147 1952 103 WP MM GLORIA 1952-12-25 03:00:00 TS 13.9308 106.962 main 0 0 P________P____ WP271952 13.9308 106.962 35 0 13.9308 106.962 TC 35 20 276
1952352N07147 1952 103 WP MM GLORIA 1952-12-25 06:00:00 TS 14.0000 106.000 main 0 0 O________O____ jtwc_wp WP271952 14.0000 106.000 30 -1 14.0000 106.000 TC 30 16 280
1952352N07147 1952 103 WP MM GLORIA 1952-12-25 09:00:00 TS 14.2019 105.388 main 0 0 P________P____ WP271952 14.2019 105.388 25 -1 14.2019 105.388 TC 25 11 297
1952352N07147 1952 103 WP MM GLORIA 1952-12-25 12:00:00 TS 14.5000 105.000 main 0 O________O____ jtwc_wp WP271952 14.5000 105.000 20 -1 14.5000 105.000 TC 20 10 308

Digital Typhoon Data and Search

About IBTrACS Database

This database is a web-friendly format of International Best Track Archive for Climate Stewardship (IBTrACS), a global best track data archive curated by NOAA dating back to 1842.

Updated: 2021-12-03